sensor_id;sensor_type;location;lat;lon;timestamp;P1;durP1;ratioP1;P2;durP2;ratioP2
77278;SDS011;66332;50.436;15.378;2024-03-23T00:53:07;18.17;;;8.45;;
77278;SDS011;66332;50.436;15.378;2024-03-23T00:57:49;18.88;;;9.07;;
77278;SDS011;66332;50.436;15.378;2024-03-23T01:02:29;19.30;;;9.98;;
77278;SDS011;66332;50.436;15.378;2024-03-23T01:07:10;23.05;;;10.68;;
77278;SDS011;66332;50.436;15.378;2024-03-23T01:11:51;18.13;;;8.85;;
77278;SDS011;66332;50.436;15.378;2024-03-23T01:16:32;18.30;;;9.20;;
77278;SDS011;66332;50.436;15.378;2024-03-23T01:21:13;15.88;;;8.18;;
77278;SDS011;66332;50.436;15.378;2024-03-23T01:25:54;18.63;;;8.88;;
77278;SDS011;66332;50.436;15.378;2024-03-23T01:30:35;19.70;;;9.15;;
77278;SDS011;66332;50.436;15.378;2024-03-23T01:39:57;18.42;;;8.32;;
77278;SDS011;66332;50.436;15.378;2024-03-23T01:44:37;17.35;;;7.95;;
77278;SDS011;66332;50.436;15.378;2024-03-23T01:49:18;15.38;;;7.55;;
77278;SDS011;66332;50.436;15.378;2024-03-23T01:53:59;18.00;;;8.68;;
77278;SDS011;66332;50.436;15.378;2024-03-23T01:58:43;16.92;;;8.43;;
77278;SDS011;66332;50.436;15.378;2024-03-23T02:03:25;16.30;;;8.38;;
77278;SDS011;66332;50.436;15.378;2024-03-23T02:08:06;16.05;;;7.78;;
77278;SDS011;66332;50.436;15.378;2024-03-23T02:12:47;15.65;;;7.57;;
77278;SDS011;66332;50.436;15.378;2024-03-23T02:17:29;16.48;;;8.45;;
77278;SDS011;66332;50.436;15.378;2024-03-23T02:22:11;16.98;;;7.88;;
77278;SDS011;66332;50.436;15.378;2024-03-23T02:26:52;17.23;;;8.23;;
77278;SDS011;66332;50.436;15.378;2024-03-23T02:31:33;16.63;;;7.90;;
77278;SDS011;66332;50.436;15.378;2024-03-23T02:36:13;18.00;;;8.30;;
77278;SDS011;66332;50.436;15.378;2024-03-23T02:40:54;15.88;;;8.07;;
77278;SDS011;66332;50.436;15.378;2024-03-23T02:45:35;17.13;;;8.25;;
77278;SDS011;66332;50.436;15.378;2024-03-23T02:50:15;15.60;;;7.95;;
77278;SDS011;66332;50.436;15.378;2024-03-23T02:54:56;19.55;;;8.38;;
77278;SDS011;66332;50.436;15.378;2024-03-23T02:59:37;14.60;;;7.70;;
77278;SDS011;66332;50.436;15.378;2024-03-23T03:04:18;17.35;;;7.97;;
77278;SDS011;66332;50.436;15.378;2024-03-23T03:08:58;17.42;;;7.65;;
77278;SDS011;66332;50.436;15.378;2024-03-23T03:13:39;18.92;;;8.55;;
77278;SDS011;66332;50.436;15.378;2024-03-23T03:18:20;17.08;;;8.07;;
77278;SDS011;66332;50.436;15.378;2024-03-23T03:23:01;15.48;;;7.88;;
77278;SDS011;66332;50.436;15.378;2024-03-23T03:27:41;17.38;;;8.38;;
77278;SDS011;66332;50.436;15.378;2024-03-23T03:32:22;17.30;;;8.73;;
77278;SDS011;66332;50.436;15.378;2024-03-23T03:37:03;15.23;;;7.82;;
77278;SDS011;66332;50.436;15.378;2024-03-23T03:46:25;17.83;;;8.45;;
77278;SDS011;66332;50.436;15.378;2024-03-23T03:51:06;18.25;;;8.73;;
77278;SDS011;66332;50.436;15.378;2024-03-23T03:55:47;17.83;;;7.95;;
77278;SDS011;66332;50.436;15.378;2024-03-23T04:00:27;16.17;;;8.02;;
77278;SDS011;66332;50.436;15.378;2024-03-23T04:05:08;14.50;;;6.97;;
77278;SDS011;66332;50.436;15.378;2024-03-23T04:09:49;16.88;;;8.13;;
77278;SDS011;66332;50.436;15.378;2024-03-23T04:14:30;17.45;;;8.40;;
77278;SDS011;66332;50.436;15.378;2024-03-23T04:19:10;18.60;;;8.30;;
77278;SDS011;66332;50.436;15.378;2024-03-23T04:23:51;17.67;;;8.77;;
77278;SDS011;66332;50.436;15.378;2024-03-23T04:28:32;16.40;;;8.18;;
77278;SDS011;66332;50.436;15.378;2024-03-23T04:33:13;17.92;;;8.45;;
77278;SDS011;66332;50.436;15.378;2024-03-23T04:37:54;17.92;;;8.07;;
77278;SDS011;66332;50.436;15.378;2024-03-23T04:42:36;20.45;;;8.85;;
77278;SDS011;66332;50.436;15.378;2024-03-23T04:47:18;18.48;;;8.80;;
77278;SDS011;66332;50.436;15.378;2024-03-23T04:51:59;19.38;;;8.88;;
77278;SDS011;66332;50.436;15.378;2024-03-23T04:56:41;18.48;;;9.20;;
77278;SDS011;66332;50.436;15.378;2024-03-23T05:01:23;17.98;;;8.30;;
77278;SDS011;66332;50.436;15.378;2024-03-23T05:06:04;17.00;;;8.73;;
77278;SDS011;66332;50.436;15.378;2024-03-23T05:10:45;18.73;;;8.45;;
77278;SDS011;66332;50.436;15.378;2024-03-23T05:15:27;17.45;;;8.52;;
77278;SDS011;66332;50.436;15.378;2024-03-23T05:20:09;17.65;;;8.93;;
77278;SDS011;66332;50.436;15.378;2024-03-23T05:24:50;18.52;;;8.18;;
77278;SDS011;66332;50.436;15.378;2024-03-23T05:29:32;17.38;;;8.30;;
77278;SDS011;66332;50.436;15.378;2024-03-23T05:34:14;16.75;;;7.85;;
77278;SDS011;66332;50.436;15.378;2024-03-23T05:38:56;18.30;;;8.35;;
77278;SDS011;66332;50.436;15.378;2024-03-23T05:43:37;16.42;;;7.72;;
77278;SDS011;66332;50.436;15.378;2024-03-23T05:48:17;17.63;;;8.18;;
77278;SDS011;66332;50.436;15.378;2024-03-23T05:52:58;16.15;;;8.05;;
77278;SDS011;66332;50.436;15.378;2024-03-23T05:57:39;19.33;;;8.75;;
77278;SDS011;66332;50.436;15.378;2024-03-23T06:02:20;18.30;;;8.50;;
77278;SDS011;66332;50.436;15.378;2024-03-23T06:07:01;17.45;;;8.10;;
77278;SDS011;66332;50.436;15.378;2024-03-23T06:11:42;18.33;;;9.02;;
77278;SDS011;66332;50.436;15.378;2024-03-23T06:16:23;18.67;;;8.90;;
77278;SDS011;66332;50.436;15.378;2024-03-23T06:21:04;20.35;;;9.45;;
77278;SDS011;66332;50.436;15.378;2024-03-23T06:25:45;18.25;;;8.80;;
77278;SDS011;66332;50.436;15.378;2024-03-23T06:30:26;16.70;;;8.65;;
77278;SDS011;66332;50.436;15.378;2024-03-23T06:35:08;17.98;;;8.63;;
77278;SDS011;66332;50.436;15.378;2024-03-23T06:39:49;18.98;;;8.95;;
77278;SDS011;66332;50.436;15.378;2024-03-23T06:44:30;18.13;;;8.52;;
77278;SDS011;66332;50.436;15.378;2024-03-23T06:49:11;19.02;;;9.35;;
77278;SDS011;66332;50.436;15.378;2024-03-23T06:53:52;17.98;;;8.90;;
77278;SDS011;66332;50.436;15.378;2024-03-23T06:58:33;17.17;;;8.63;;
77278;SDS011;66332;50.436;15.378;2024-03-23T07:03:14;18.75;;;9.32;;
77278;SDS011;66332;50.436;15.378;2024-03-23T07:07:55;20.27;;;9.95;;
77278;SDS011;66332;50.436;15.378;2024-03-23T07:12:36;16.92;;;9.20;;
77278;SDS011;66332;50.436;15.378;2024-03-23T07:17:17;19.30;;;9.25;;
77278;SDS011;66332;50.436;15.378;2024-03-23T07:21:58;19.55;;;9.88;;
77278;SDS011;66332;50.436;15.378;2024-03-23T07:26:39;19.05;;;9.48;;
77278;SDS011;66332;50.436;15.378;2024-03-23T07:31:20;18.23;;;9.18;;
77278;SDS011;66332;50.436;15.378;2024-03-23T07:36:00;18.60;;;9.65;;
77278;SDS011;66332;50.436;15.378;2024-03-23T07:40:42;20.20;;;9.88;;
77278;SDS011;66332;50.436;15.378;2024-03-23T07:45:23;19.60;;;9.93;;
77278;SDS011;66332;50.436;15.378;2024-03-23T07:50:04;19.50;;;10.18;;
77278;SDS011;66332;50.436;15.378;2024-03-23T07:54:45;18.17;;;8.82;;
77278;SDS011;66332;50.436;15.378;2024-03-23T07:59:26;17.35;;;9.32;;
77278;SDS011;66332;50.436;15.378;2024-03-23T08:04:07;18.23;;;9.70;;
77278;SDS011;66332;50.436;15.378;2024-03-23T08:08:48;15.68;;;8.57;;
77278;SDS011;66332;50.436;15.378;2024-03-23T08:13:32;17.08;;;8.95;;
77278;SDS011;66332;50.436;15.378;2024-03-23T08:18:13;15.38;;;7.93;;
77278;SDS011;66332;50.436;15.378;2024-03-23T08:22:56;14.65;;;8.35;;
77278;SDS011;66332;50.436;15.378;2024-03-23T08:27:36;16.80;;;9.13;;
77278;SDS011;66332;50.436;15.378;2024-03-23T08:32:17;15.18;;;8.52;;
77278;SDS011;66332;50.436;15.378;2024-03-23T08:36:58;18.88;;;8.98;;
77278;SDS011;66332;50.436;15.378;2024-03-23T08:41:38;14.23;;;8.30;;
77278;SDS011;66332;50.436;15.378;2024-03-23T08:51:03;14.38;;;7.80;;
77278;SDS011;66332;50.436;15.378;2024-03-23T08:55:52;13.20;;;7.60;;
77278;SDS011;66332;50.436;15.378;2024-03-23T09:00:34;14.90;;;8.27;;
77278;SDS011;66332;50.436;15.378;2024-03-23T09:05:16;14.15;;;7.72;;
77278;SDS011;66332;50.436;15.378;2024-03-23T09:09:57;13.15;;;7.95;;
77278;SDS011;66332;50.436;15.378;2024-03-23T09:14:37;14.20;;;8.27;;
77278;SDS011;66332;50.436;15.378;2024-03-23T09:19:18;13.95;;;8.52;;
77278;SDS011;66332;50.436;15.378;2024-03-23T09:24:00;17.05;;;8.70;;
77278;SDS011;66332;50.436;15.378;2024-03-23T09:28:41;14.25;;;8.35;;
77278;SDS011;66332;50.436;15.378;2024-03-23T09:33:22;16.60;;;8.73;;
77278;SDS011;66332;50.436;15.378;2024-03-23T09:38:02;15.32;;;8.88;;
77278;SDS011;66332;50.436;15.378;2024-03-23T09:42:43;15.63;;;8.82;;
77278;SDS011;66332;50.436;15.378;2024-03-23T09:47:30;13.77;;;8.20;;
77278;SDS011;66332;50.436;15.378;2024-03-23T09:52:11;15.95;;;8.98;;
77278;SDS011;66332;50.436;15.378;2024-03-23T09:56:52;16.95;;;8.70;;
77278;SDS011;66332;50.436;15.378;2024-03-23T10:01:33;11.95;;;8.07;;
77278;SDS011;66332;50.436;15.378;2024-03-23T10:06:14;13.95;;;6.95;;
77278;SDS011;66332;50.436;15.378;2024-03-23T10:11:15;9.23;;;5.07;;
77278;SDS011;66332;50.436;15.378;2024-03-23T10:15:56;10.95;;;6.07;;
77278;SDS011;66332;50.436;15.378;2024-03-23T10:20:38;11.70;;;6.03;;
77278;SDS011;66332;50.436;15.378;2024-03-23T10:25:23;9.25;;;4.35;;
77278;SDS011;66332;50.436;15.378;2024-03-23T10:30:11;7.60;;;3.75;;
77278;SDS011;66332;50.436;15.378;2024-03-23T10:34:53;8.00;;;3.50;;
77278;SDS011;66332;50.436;15.378;2024-03-23T10:44:18;9.50;;;4.43;;
77278;SDS011;66332;50.436;15.378;2024-03-23T10:49:00;8.57;;;4.35;;
77278;SDS011;66332;50.436;15.378;2024-03-23T10:58:44;9.40;;;5.03;;
77278;SDS011;66332;50.436;15.378;2024-03-23T11:08:29;11.55;;;5.65;;
77278;SDS011;66332;50.436;15.378;2024-03-23T11:13:23;10.65;;;4.40;;
77278;SDS011;66332;50.436;15.378;2024-03-23T11:18:05;8.43;;;3.70;;
77278;SDS011;66332;50.436;15.378;2024-03-23T11:22:48;11.35;;;5.63;;
77278;SDS011;66332;50.436;15.378;2024-03-23T11:27:33;7.43;;;3.38;;
77278;SDS011;66332;50.436;15.378;2024-03-23T11:32:14;8.75;;;4.47;;
77278;SDS011;66332;50.436;15.378;2024-03-23T11:37:03;8.18;;;3.67;;
77278;SDS011;66332;50.436;15.378;2024-03-23T11:46:29;7.22;;;3.03;;
77278;SDS011;66332;50.436;15.378;2024-03-23T11:51:11;7.53;;;3.40;;
77278;SDS011;66332;50.436;15.378;2024-03-23T11:55:55;7.00;;;2.95;;
77278;SDS011;66332;50.436;15.378;2024-03-23T12:00:38;8.00;;;3.50;;
77278;SDS011;66332;50.436;15.378;2024-03-23T12:05:19;7.75;;;3.92;;
77278;SDS011;66332;50.436;15.378;2024-03-23T12:10:03;8.98;;;3.67;;
77278;SDS011;66332;50.436;15.378;2024-03-23T12:15:03;8.50;;;3.50;;
77278;SDS011;66332;50.436;15.378;2024-03-23T12:19:46;8.15;;;3.88;;
77278;SDS011;66332;50.436;15.378;2024-03-23T12:24:27;7.82;;;3.85;;
77278;SDS011;66332;50.436;15.378;2024-03-23T12:29:08;9.02;;;4.43;;
77278;SDS011;66332;50.436;15.378;2024-03-23T12:33:49;12.20;;;5.70;;
77278;SDS011;66332;50.436;15.378;2024-03-23T12:38:29;9.73;;;4.75;;
77278;SDS011;66332;50.436;15.378;2024-03-23T12:43:10;6.82;;;3.22;;
77278;SDS011;66332;50.436;15.378;2024-03-23T12:47:51;7.25;;;2.78;;
77278;SDS011;66332;50.436;15.378;2024-03-23T12:52:34;5.90;;;2.30;;
77278;SDS011;66332;50.436;15.378;2024-03-23T12:57:15;4.50;;;1.40;;
77278;SDS011;66332;50.436;15.378;2024-03-23T13:01:55;3.08;;;0.98;;
77278;SDS011;66332;50.436;15.378;2024-03-23T13:06:36;3.85;;;1.48;;
77278;SDS011;66332;50.436;15.378;2024-03-23T13:11:17;4.50;;;1.10;;
77278;SDS011;66332;50.436;15.378;2024-03-23T13:15:58;2.08;;;0.80;;
77278;SDS011;66332;50.436;15.378;2024-03-23T13:20:39;2.22;;;0.90;;
77278;SDS011;66332;50.436;15.378;2024-03-23T13:25:20;2.05;;;0.82;;
77278;SDS011;66332;50.436;15.378;2024-03-23T13:30:01;1.45;;;0.75;;
77278;SDS011;66332;50.436;15.378;2024-03-23T13:34:44;1.73;;;0.70;;
77278;SDS011;66332;50.436;15.378;2024-03-23T13:39:25;1.67;;;0.82;;
77278;SDS011;66332;50.436;15.378;2024-03-23T13:44:08;2.42;;;0.90;;
77278;SDS011;66332;50.436;15.378;2024-03-23T13:48:52;3.78;;;1.15;;
77278;SDS011;66332;50.436;15.378;2024-03-23T13:53:33;1.95;;;0.93;;
77278;SDS011;66332;50.436;15.378;2024-03-23T13:58:14;0.75;;;0.60;;
77278;SDS011;66332;50.436;15.378;2024-03-23T14:02:55;1.55;;;0.73;;
77278;SDS011;66332;50.436;15.378;2024-03-23T14:07:36;0.98;;;0.70;;
77278;SDS011;66332;50.436;15.378;2024-03-23T14:12:18;1.63;;;0.93;;
77278;SDS011;66332;50.436;15.378;2024-03-23T14:16:58;1.30;;;0.70;;
77278;SDS011;66332;50.436;15.378;2024-03-23T14:21:39;2.38;;;0.90;;
77278;SDS011;66332;50.436;15.378;2024-03-23T14:26:20;1.67;;;0.90;;
77278;SDS011;66332;50.436;15.378;2024-03-23T14:31:01;2.13;;;0.90;;
77278;SDS011;66332;50.436;15.378;2024-03-23T14:35:51;2.58;;;0.82;;
77278;SDS011;66332;50.436;15.378;2024-03-23T14:40:33;3.08;;;0.88;;
77278;SDS011;66332;50.436;15.378;2024-03-23T14:45:14;1.77;;;0.82;;
77278;SDS011;66332;50.436;15.378;2024-03-23T14:49:55;2.53;;;0.80;;
77278;SDS011;66332;50.436;15.378;2024-03-23T14:54:36;3.70;;;1.00;;
77278;SDS011;66332;50.436;15.378;2024-03-23T14:59:17;2.15;;;0.80;;
77278;SDS011;66332;50.436;15.378;2024-03-23T15:04:00;2.17;;;0.90;;
77278;SDS011;66332;50.436;15.378;2024-03-23T15:08:41;2.28;;;0.88;;
77278;SDS011;66332;50.436;15.378;2024-03-23T15:13:22;1.15;;;0.70;;
77278;SDS011;66332;50.436;15.378;2024-03-23T15:18:06;1.98;;;0.88;;
77278;SDS011;66332;50.436;15.378;2024-03-23T15:22:47;1.02;;;0.60;;
77278;SDS011;66332;50.436;15.378;2024-03-23T15:27:27;2.50;;;0.90;;
77278;SDS011;66332;50.436;15.378;2024-03-23T15:32:08;2.25;;;0.82;;
77278;SDS011;66332;50.436;15.378;2024-03-23T15:36:49;3.70;;;1.30;;
77278;SDS011;66332;50.436;15.378;2024-03-23T15:41:31;3.45;;;1.10;;
77278;SDS011;66332;50.436;15.378;2024-03-23T15:46:12;3.45;;;1.10;;
77278;SDS011;66332;50.436;15.378;2024-03-23T15:51:04;4.18;;;1.27;;
77278;SDS011;66332;50.436;15.378;2024-03-23T15:55:45;3.30;;;1.20;;
77278;SDS011;66332;50.436;15.378;2024-03-23T16:00:26;3.83;;;1.20;;
77278;SDS011;66332;50.436;15.378;2024-03-23T16:05:07;4.78;;;1.33;;
77278;SDS011;66332;50.436;15.378;2024-03-23T16:09:51;5.20;;;1.50;;
77278;SDS011;66332;50.436;15.378;2024-03-23T16:14:32;3.47;;;1.15;;
77278;SDS011;66332;50.436;15.378;2024-03-23T16:19:13;4.53;;;1.33;;
77278;SDS011;66332;50.436;15.378;2024-03-23T16:23:54;3.95;;;1.40;;
77278;SDS011;66332;50.436;15.378;2024-03-23T16:28:35;9.95;;;1.42;;
77278;SDS011;66332;50.436;15.378;2024-03-23T16:33:16;5.65;;;1.60;;
77278;SDS011;66332;50.436;15.378;2024-03-23T16:37:57;5.05;;;1.58;;
77278;SDS011;66332;50.436;15.378;2024-03-23T16:42:39;5.97;;;1.70;;
77278;SDS011;66332;50.436;15.378;2024-03-23T16:47:20;6.47;;;1.70;;
77278;SDS011;66332;50.436;15.378;2024-03-23T16:52:01;5.40;;;1.80;;
77278;SDS011;66332;50.436;15.378;2024-03-23T16:56:42;5.15;;;1.60;;
77278;SDS011;66332;50.436;15.378;2024-03-23T17:01:24;4.90;;;1.63;;
77278;SDS011;66332;50.436;15.378;2024-03-23T17:06:08;6.28;;;1.80;;
77278;SDS011;66332;50.436;15.378;2024-03-23T17:10:50;6.07;;;1.95;;
77278;SDS011;66332;50.436;15.378;2024-03-23T17:15:43;5.55;;;2.00;;
77278;SDS011;66332;50.436;15.378;2024-03-23T17:20:25;6.30;;;1.95;;
77278;SDS011;66332;50.436;15.378;2024-03-23T17:25:07;5.05;;;1.60;;
77278;SDS011;66332;50.436;15.378;2024-03-23T17:29:48;5.55;;;1.90;;
77278;SDS011;66332;50.436;15.378;2024-03-23T17:34:30;5.78;;;1.98;;
77278;SDS011;66332;50.436;15.378;2024-03-23T17:39:11;7.65;;;1.80;;
77278;SDS011;66332;50.436;15.378;2024-03-23T17:43:53;5.35;;;1.60;;
77278;SDS011;66332;50.436;15.378;2024-03-23T17:48:34;6.25;;;1.92;;
77278;SDS011;66332;50.436;15.378;2024-03-23T17:53:16;5.65;;;2.00;;
77278;SDS011;66332;50.436;15.378;2024-03-23T17:57:58;6.28;;;2.80;;
77278;SDS011;66332;50.436;15.378;2024-03-23T18:02:42;7.10;;;2.53;;
77278;SDS011;66332;50.436;15.378;2024-03-23T18:07:24;7.25;;;2.78;;
77278;SDS011;66332;50.436;15.378;2024-03-23T18:12:06;10.38;;;3.75;;
77278;SDS011;66332;50.436;15.378;2024-03-23T18:16:48;10.80;;;4.32;;
77278;SDS011;66332;50.436;15.378;2024-03-23T18:21:29;11.52;;;4.78;;
77278;SDS011;66332;50.436;15.378;2024-03-23T18:26:10;7.72;;;3.60;;
77278;SDS011;66332;50.436;15.378;2024-03-23T18:30:58;9.93;;;3.95;;
77278;SDS011;66332;50.436;15.378;2024-03-23T18:35:40;16.58;;;8.05;;
77278;SDS011;66332;50.436;15.378;2024-03-23T18:40:21;12.32;;;6.25;;
77278;SDS011;66332;50.436;15.378;2024-03-23T18:45:02;13.40;;;6.63;;
77278;SDS011;66332;50.436;15.378;2024-03-23T18:49:43;13.38;;;6.40;;
77278;SDS011;66332;50.436;15.378;2024-03-23T18:54:26;12.45;;;5.35;;
77278;SDS011;66332;50.436;15.378;2024-03-23T18:59:08;12.00;;;5.82;;
77278;SDS011;66332;50.436;15.378;2024-03-23T19:03:49;10.30;;;5.13;;
77278;SDS011;66332;50.436;15.378;2024-03-23T19:08:30;12.57;;;6.10;;
77278;SDS011;66332;50.436;15.378;2024-03-23T19:13:12;12.00;;;6.05;;
77278;SDS011;66332;50.436;15.378;2024-03-23T19:17:53;13.85;;;6.13;;
77278;SDS011;66332;50.436;15.378;2024-03-23T19:22:35;20.35;;;10.00;;
77278;SDS011;66332;50.436;15.378;2024-03-23T19:27:17;42.00;;;21.83;;
77278;SDS011;66332;50.436;15.378;2024-03-23T19:31:58;15.68;;;7.22;;
77278;SDS011;66332;50.436;15.378;2024-03-23T19:36:41;16.40;;;7.13;;
77278;SDS011;66332;50.436;15.378;2024-03-23T19:41:22;16.67;;;7.40;;
77278;SDS011;66332;50.436;15.378;2024-03-23T19:46:05;12.88;;;5.82;;
77278;SDS011;66332;50.436;15.378;2024-03-23T19:50:56;12.63;;;6.88;;
77278;SDS011;66332;50.436;15.378;2024-03-23T19:55:39;14.98;;;7.43;;
77278;SDS011;66332;50.436;15.378;2024-03-23T20:00:21;18.50;;;8.95;;
77278;SDS011;66332;50.436;15.378;2024-03-23T20:05:02;17.58;;;9.60;;
77278;SDS011;66332;50.436;15.378;2024-03-23T20:09:44;15.15;;;6.63;;
77278;SDS011;66332;50.436;15.378;2024-03-23T20:14:25;9.68;;;3.95;;
77278;SDS011;66332;50.436;15.378;2024-03-23T20:19:07;13.73;;;5.60;;
77278;SDS011;66332;50.436;15.378;2024-03-23T20:23:49;12.73;;;6.13;;
77278;SDS011;66332;50.436;15.378;2024-03-23T20:28:31;14.07;;;5.72;;
77278;SDS011;66332;50.436;15.378;2024-03-23T20:33:13;16.75;;;7.72;;
77278;SDS011;66332;50.436;15.378;2024-03-23T20:37:55;17.08;;;7.38;;
77278;SDS011;66332;50.436;15.378;2024-03-23T20:42:36;13.85;;;5.32;;
77278;SDS011;66332;50.436;15.378;2024-03-23T20:47:17;12.05;;;4.70;;
77278;SDS011;66332;50.436;15.378;2024-03-23T20:51:58;12.80;;;5.18;;
77278;SDS011;66332;50.436;15.378;2024-03-23T20:56:41;10.75;;;5.00;;
77278;SDS011;66332;50.436;15.378;2024-03-23T21:01:22;10.48;;;4.40;;
77278;SDS011;66332;50.436;15.378;2024-03-23T21:06:04;13.00;;;4.75;;
77278;SDS011;66332;50.436;15.378;2024-03-23T21:10:50;11.27;;;4.80;;
77278;SDS011;66332;50.436;15.378;2024-03-23T21:15:32;11.75;;;5.60;;
77278;SDS011;66332;50.436;15.378;2024-03-23T21:20:16;12.73;;;5.40;;
77278;SDS011;66332;50.436;15.378;2024-03-23T21:24:58;12.68;;;6.07;;
77278;SDS011;66332;50.436;15.378;2024-03-23T21:29:38;17.02;;;7.50;;
77278;SDS011;66332;50.436;15.378;2024-03-23T21:34:19;18.38;;;8.75;;
77278;SDS011;66332;50.436;15.378;2024-03-23T21:39:00;14.77;;;7.60;;
77278;SDS011;66332;50.436;15.378;2024-03-23T21:43:45;15.15;;;7.97;;
77278;SDS011;66332;50.436;15.378;2024-03-23T21:48:27;14.07;;;7.05;;
77278;SDS011;66332;50.436;15.378;2024-03-23T21:53:15;18.60;;;9.27;;
77278;SDS011;66332;50.436;15.378;2024-03-23T21:57:56;16.75;;;8.05;;
77278;SDS011;66332;50.436;15.378;2024-03-23T22:02:38;12.95;;;6.10;;
77278;SDS011;66332;50.436;15.378;2024-03-23T22:07:19;15.25;;;7.47;;
77278;SDS011;66332;50.436;15.378;2024-03-23T22:12:06;17.25;;;6.97;;
77278;SDS011;66332;50.436;15.378;2024-03-23T22:16:47;19.27;;;9.07;;
77278;SDS011;66332;50.436;15.378;2024-03-23T22:21:28;24.20;;;12.30;;
77278;SDS011;66332;50.436;15.378;2024-03-23T22:26:08;20.42;;;9.95;;
77278;SDS011;66332;50.436;15.378;2024-03-23T22:30:56;16.88;;;8.65;;
77278;SDS011;66332;50.436;15.378;2024-03-23T22:35:37;17.92;;;8.40;;
77278;SDS011;66332;50.436;15.378;2024-03-23T22:40:24;13.90;;;7.00;;
77278;SDS011;66332;50.436;15.378;2024-03-23T22:45:08;17.15;;;8.30;;
77278;SDS011;66332;50.436;15.378;2024-03-23T22:49:49;15.80;;;7.38;;
77278;SDS011;66332;50.436;15.378;2024-03-23T22:54:30;15.60;;;6.72;;
77278;SDS011;66332;50.436;15.378;2024-03-23T22:59:11;12.90;;;6.10;;
77278;SDS011;66332;50.436;15.378;2024-03-23T23:03:51;12.80;;;6.05;;
77278;SDS011;66332;50.436;15.378;2024-03-23T23:08:32;11.50;;;6.10;;
77278;SDS011;66332;50.436;15.378;2024-03-23T23:13:13;16.38;;;7.10;;
77278;SDS011;66332;50.436;15.378;2024-03-23T23:17:54;14.23;;;6.95;;
77278;SDS011;66332;50.436;15.378;2024-03-23T23:22:35;13.18;;;7.20;;
77278;SDS011;66332;50.436;15.378;2024-03-23T23:27:16;13.35;;;5.93;;
77278;SDS011;66332;50.436;15.378;2024-03-23T23:31:57;14.70;;;6.30;;
77278;SDS011;66332;50.436;15.378;2024-03-23T23:36:38;15.50;;;6.75;;
77278;SDS011;66332;50.436;15.378;2024-03-23T23:41:19;14.27;;;6.88;;
77278;SDS011;66332;50.436;15.378;2024-03-23T23:45:59;15.07;;;6.67;;
77278;SDS011;66332;50.436;15.378;2024-03-23T23:50:40;16.40;;;6.95;;
77278;SDS011;66332;50.436;15.378;2024-03-23T23:55:21;16.20;;;7.30;;
